Time;durP1;ratioP1;P1;durP2;ratioP2;P2;SDS_P1;SDS_P2;PMS_P1;PMS_P2;Temp;Humidity;BMP_temperature;BMP_pressure;BME280_temperature;BME280_humidity;BME280_pressure;Samples;Min_cycle;Max_cycle;Signal;HPM_P1;HPM_P2
2021/11/10 00:00:43;;;;;;;0.90;0.82;;;3.10;99.90;;;;;;4350115;32;20085;-63
2021/11/10 00:03:09;;;;;;;0.93;0.70;;;3.10;99.90;;;;;;4374790;32;20162;-63
2021/11/10 00:05:37;;;;;;;1.10;0.80;;;2.90;99.90;;;;;;4362474;32;20099;-62
2021/11/10 00:08:04;;;;;;;1.02;0.70;;;2.90;99.90;;;;;;4354686;32;20102;-62
2021/11/10 00:10:30;;;;;;;1.05;0.95;;;3.00;99.90;;;;;;4352432;32;20076;-63
2021/11/10 00:13:18;;;;;;;1.62;0.90;;;2.90;99.90;;;;;;4339677;32;20101;-62
2021/11/10 00:15:48;;;;;;;0.80;0.60;;;2.90;99.90;;;;;;4356085;32;20081;-62
2021/11/10 00:18:15;;;;;;;3.60;0.95;;;2.70;99.90;;;;;;4339898;32;20081;-63
2021/11/10 00:20:43;;;;;;;1.17;0.70;;;2.70;99.90;;;;;;4339772;32;20082;-62
2021/11/10 00:23:09;;;;;;;0.75;0.55;;;2.80;99.90;;;;;;4340218;32;20161;-63
2021/11/10 00:25:35;;;;;;;3.20;0.80;;;2.70;99.90;;;;;;4352568;32;20086;-62
2021/11/10 00:28:01;;;;;;;0.52;0.35;;;2.70;99.90;;;;;;4351924;32;20159;-62
2021/11/10 00:30:29;;;;;;;0.82;0.73;;;2.70;99.90;;;;;;4327617;32;20078;-63
2021/11/10 00:32:55;;;;;;;0.70;0.70;;;2.60;99.90;;;;;;4340452;32;20588;-62
2021/11/10 00:35:22;;;;;;;0.90;0.70;;;2.60;99.90;;;;;;4339650;32;20176;-63
2021/11/10 00:37:48;;;;;;;0.77;0.47;;;2.60;99.90;;;;;;4339369;32;20084;-63
2021/11/10 00:40:15;;;;;;;1.23;0.80;;;2.60;99.90;;;;;;4339594;32;20066;-63
2021/11/10 00:42:42;;;;;;;0.47;0.47;;;2.60;99.90;;;;;;4364401;32;20147;-61
2021/11/10 00:45:09;;;;;;;0.40;0.37;;;2.50;99.90;;;;;;4339564;32;20081;-62
2021/11/10 00:47:35;;;;;;;1.02;0.50;;;2.40;99.90;;;;;;4351948;32;20073;-63
2021/11/10 00:50:01;;;;;;;0.55;0.52;;;2.50;99.90;;;;;;4340108;32;20179;-62
2021/11/10 00:52:28;;;;;;;0.57;0.50;;;2.40;99.90;;;;;;4315392;32;20092;-63
2021/11/10 00:54:54;;;;;;;0.80;0.73;;;2.40;99.90;;;;;;4377982;32;20142;-62
2021/11/10 00:57:20;;;;;;;0.80;0.80;;;2.50;99.90;;;;;;4364001;32;20090;-61
2021/11/10 00:59:46;;;;;;;1.10;0.60;;;2.40;99.90;;;;;;4377575;32;20247;-61
2021/11/10 01:02:13;;;;;;;0.55;0.50;;;2.40;99.90;;;;;;4339568;32;20474;-62
2021/11/10 01:04:40;;;;;;;0.65;0.50;;;2.40;99.90;;;;;;4339612;32;20074;-63
2021/11/10 01:07:07;;;;;;;0.52;0.52;;;2.40;99.90;;;;;;4364281;32;20098;-62
2021/11/10 01:09:39;;;;;;;1.50;0.50;;;2.30;99.90;;;;;;4339660;32;20066;-62
2021/11/10 01:12:08;;;;;;;1.83;0.70;;;2.50;99.90;;;;;;4340955;32;20123;-63
2021/11/10 01:14:34;;;;;;;0.40;0.40;;;2.30;99.90;;;;;;4363568;32;20074;-63
2021/11/10 01:17:00;;;;;;;1.37;0.50;;;2.40;99.90;;;;;;4377841;32;20519;-62
2021/11/10 01:19:26;;;;;;;0.73;0.73;;;2.30;99.90;;;;;;4351299;32;20082;-61
2021/11/10 01:21:52;;;;;;;0.55;0.55;;;2.30;99.90;;;;;;4363868;32;20077;-61
2021/11/10 01:24:19;;;;;;;1.75;0.50;;;2.20;99.90;;;;;;4341811;32;20082;-63
2021/11/10 01:26:45;;;;;;;0.70;0.62;;;2.20;99.90;;;;;;4348293;32;20077;-62
2021/11/10 01:29:12;;;;;;;0.70;0.70;;;2.20;99.90;;;;;;4340263;32;20182;-62
2021/11/10 01:31:38;;;;;;;1.05;0.85;;;2.10;99.90;;;;;;4351341;32;20062;-63
2021/11/10 01:34:07;;;;;;;1.20;0.43;;;2.10;99.90;;;;;;4363904;32;20089;-63
2021/11/10 01:36:37;;;;;;;0.70;0.60;;;2.10;99.90;;;;;;4340258;32;20066;-62
2021/11/10 01:39:08;;;;;;;1.02;0.60;;;2.10;99.90;;;;;;4340760;32;20182;-62
2021/11/10 01:41:46;;;;;;;0.73;0.50;;;1.90;99.90;;;;;;4327679;32;20159;-62
2021/11/10 01:44:26;;;;;;;0.60;0.60;;;2.00;99.90;;;;;;4341279;32;20177;-61
2021/11/10 01:46:54;;;;;;;0.60;0.45;;;1.90;99.90;;;;;;4339573;32;20501;-63
2021/11/10 01:49:20;;;;;;;0.90;0.50;;;1.90;99.90;;;;;;4364274;32;20078;-62
2021/11/10 01:51:50;;;;;;;2.62;0.73;;;2.00;99.90;;;;;;4338779;32;20076;-62
2021/11/10 01:54:23;;;;;;;0.57;0.30;;;1.80;99.90;;;;;;4351481;32;20090;-63
2021/11/10 01:56:50;;;;;;;0.90;0.70;;;1.80;99.90;;;;;;4339248;32;20081;-62
2021/11/10 01:59:43;;;;;;;1.42;0.88;;;1.80;99.90;;;;;;4326136;32;20210;-61
2021/11/10 02:02:29;;;;;;;1.85;0.60;;;1.70;99.90;;;;;;4351041;32;20497;-62
2021/11/10 02:04:56;;;;;;;3.35;0.75;;;1.70;99.90;;;;;;4342556;32;20089;-63
2021/11/10 02:07:22;;;;;;;1.08;0.52;;;1.70;99.90;;;;;;4338489;32;20062;-62
2021/11/10 02:09:50;;;;;;;1.25;0.75;;;1.70;99.90;;;;;;4326830;32;20074;-63
2021/11/10 02:12:17;;;;;;;1.60;0.85;;;1.70;99.90;;;;;;4338700;32;20092;-63
2021/11/10 02:14:43;;;;;;;2.25;0.80;;;1.70;99.90;;;;;;4337857;32;20523;-63
2021/11/10 02:17:20;;;;;;;0.75;0.65;;;1.70;99.90;;;;;;4325755;32;20078;-61
2021/11/10 02:19:47;;;;;;;;;;;1.60;99.90;;;;;;4338658;32;20070;-63
2021/11/10 02:22:16;;;;;;;0.80;0.65;;;1.60;99.90;;;;;;4338280;32;20328;-62
2021/11/10 02:24:43;;;;;;;2.37;0.98;;;1.50;99.90;;;;;;4339165;32;20085;-66
2021/11/10 02:27:21;;;;;;;1.83;1.08;;;1.50;99.90;;;;;;4337994;32;20094;-62
2021/11/10 02:29:50;;;;;;;1.17;0.55;;;1.30;99.90;;;;;;4340264;32;20088;-63
2021/11/10 02:32:16;;;;;;;1.60;0.85;;;1.40;99.90;;;;;;4362848;32;20153;-63
2021/11/10 02:34:45;;;;;;;2.47;1.40;;;1.30;99.90;;;;;;4338086;32;20086;-63
2021/11/10 02:37:13;;;;;;;1.90;0.75;;;1.30;99.90;;;;;;4338263;32;20535;-63
2021/11/10 02:39:39;;;;;;;0.95;0.75;;;1.30;99.90;;;;;;4338018;32;20589;-61
2021/11/10 02:42:07;;;;;;;0.73;0.73;;;1.30;99.90;;;;;;4337932;32;20081;-62
2021/11/10 02:44:33;;;;;;;1.05;0.73;;;1.00;99.90;;;;;;4350008;32;20068;-62
2021/11/10 02:46:59;;;;;;;0.95;0.85;;;1.10;99.90;;;;;;4338172;32;20082;-63
2021/11/10 02:49:26;;;;;;;0.80;0.60;;;0.90;99.90;;;;;;4338228;32;20070;-62
2021/11/10 02:52:06;;;;;;;1.48;0.73;;;1.00;99.90;;;;;;4338025;32;20074;-62
2021/11/10 02:54:35;;;;;;;1.35;0.88;;;0.90;99.90;;;;;;4350928;32;20082;-62
2021/11/10 02:57:04;;;;;;;1.20;0.80;;;1.00;99.90;;;;;;4338069;32;20097;-63
2021/11/10 02:59:31;;;;;;;1.87;1.05;;;0.90;99.90;;;;;;4325867;32;20166;-63
2021/11/10 03:01:58;;;;;;;2.45;1.10;;;0.90;99.90;;;;;;4325929;32;20166;-64
2021/11/10 03:04:36;;;;;;;1.62;0.47;;;0.70;99.90;;;;;;4325960;32;20113;-63
2021/11/10 03:07:03;;;;;;;1.12;0.60;;;0.80;99.90;;;;;;4326641;32;20457;-62
2021/11/10 03:09:34;;;;;;;1.35;0.80;;;0.80;99.90;;;;;;4349918;32;20063;-60
2021/11/10 03:12:01;;;;;;;1.33;0.93;;;0.80;99.90;;;;;;4325849;32;20066;-62
2021/11/10 03:14:29;;;;;;;1.60;0.90;;;0.80;99.90;;;;;;4350476;32;20501;-62
2021/11/10 03:16:56;;;;;;;2.10;0.77;;;0.60;99.90;;;;;;4337773;32;20077;-62
2021/11/10 03:19:23;;;;;;;1.08;0.77;;;0.70;99.90;;;;;;4362494;32;20061;-63
2021/11/10 03:21:49;;;;;;;2.45;0.77;;;0.80;99.90;;;;;;4337624;32;20082;-63
2021/11/10 03:24:15;;;;;;;3.20;0.90;;;0.70;99.90;;;;;;4350239;32;20593;-65
2021/11/10 03:26:43;;;;;;;1.52;1.10;;;0.70;99.90;;;;;;4350392;32;20066;-62
2021/11/10 03:29:09;;;;;;;1.85;1.00;;;0.80;99.90;;;;;;4337631;32;20577;-63
2021/11/10 03:31:37;;;;;;;0.90;0.50;;;0.70;99.90;;;;;;4350264;32;20069;-61
2021/11/10 03:34:04;;;;;;;1.23;0.60;;;0.50;99.90;;;;;;4350152;32;20477;-62
2021/11/10 03:36:30;;;;;;;0.70;0.70;;;0.50;99.90;;;;;;4349716;32;20516;-62
2021/11/10 03:38:56;;;;;;;0.82;0.50;;;0.50;99.90;;;;;;4350017;32;20201;-62
2021/11/10 03:41:23;;;;;;;1.42;1.00;;;0.40;99.90;;;;;;4362176;32;20068;-62
2021/11/10 03:43:52;;;;;;;1.20;1.05;;;0.20;99.90;;;;;;4328169;32;20489;-61
2021/11/10 03:46:20;;;;;;;1.05;0.90;;;0.10;99.90;;;;;;4342066;32;20078;-62
2021/11/10 03:48:47;;;;;;;1.30;1.00;;;0.00;99.90;;;;;;4340873;32;20088;-62
2021/11/10 03:51:13;;;;;;;0.73;0.73;;;0.00;99.90;;;;;;4343360;32;20131;-62
2021/11/10 03:53:39;;;;;;;1.83;0.80;;;0.10;99.90;;;;;;4357535;32;20078;-61
2021/11/10 03:56:06;;;;;;;1.00;0.93;;;0.20;99.90;;;;;;4364896;32;20084;-63
2021/11/10 03:58:33;;;;;;;1.25;1.10;;;0.00;99.90;;;;;;4340182;32;20076;-61
2021/11/10 04:01:00;;;;;;;1.20;1.10;;;0.00;99.90;;;;;;4352572;32;20078;-61
2021/11/10 04:03:27;;;;;;;1.00;0.50;;;0.00;99.90;;;;;;4340430;32;20116;-63
2021/11/10 04:05:53;;;;;;;2.92;0.98;;;0.20;99.90;;;;;;4340708;32;20073;-63
2021/11/10 04:08:20;;;;;;;1.23;1.05;;;-0.10;99.90;;;;;;4339939;32;20526;-61
2021/11/10 04:10:46;;;;;;;1.90;1.08;;;0.20;99.90;;;;;;4340091;32;20089;-61
2021/11/10 04:13:13;;;;;;;1.75;1.00;;;0.00;99.90;;;;;;4339877;32;20512;-62
2021/11/10 04:15:39;;;;;;;5.95;1.23;;;0.00;99.90;;;;;;4352410;32;20175;-62
2021/11/10 04:18:05;;;;;;;1.37;1.00;;;0.00;99.90;;;;;;4340090;32;20080;-62
2021/11/10 04:20:31;;;;;;;3.72;1.58;;;0.10;99.90;;;;;;4378318;32;20074;-63
2021/11/10 04:22:58;;;;;;;2.22;1.27;;;0.10;99.90;;;;;;4340255;32;20158;-61
2021/11/10 04:25:25;;;;;;;2.42;1.17;;;0.10;99.90;;;;;;4339712;32;20097;-63
2021/11/10 04:27:51;;;;;;;3.97;1.30;;;0.00;99.90;;;;;;4340010;32;20086;-63
2021/11/10 04:30:17;;;;;;;1.92;1.10;;;0.10;99.90;;;;;;4351793;32;20079;-61
2021/11/10 04:32:44;;;;;;;2.87;1.40;;;0.10;99.90;;;;;;4339901;32;20070;-61
2021/11/10 04:35:12;;;;;;;4.03;1.60;;;-0.10;99.90;;;;;;4327237;32;20081;-63
2021/11/10 04:37:38;;;;;;;4.18;1.52;;;-0.20;99.90;;;;;;4315708;32;20082;-62
2021/11/10 04:40:06;;;;;;;3.03;1.60;;;-0.40;99.90;;;;;;4351778;32;20145;-61
2021/11/10 04:42:33;;;;;;;3.85;1.58;;;-0.20;99.90;;;;;;4339791;32;20185;-63
2021/11/10 04:45:05;;;;;;;2.42;1.67;;;-0.30;99.90;;;;;;4339664;32;20163;-63
2021/11/10 04:47:32;;;;;;;2.50;1.12;;;-0.20;99.90;;;;;;4352839;32;20165;-62
2021/11/10 04:49:58;;;;;;;3.10;1.30;;;-0.40;99.90;;;;;;4339822;32;20078;-63
2021/11/10 04:52:25;;;;;;;2.40;1.35;;;-0.30;99.90;;;;;;4351437;32;20531;-62
2021/11/10 04:54:52;;;;;;;0.57;0.52;;;-0.30;99.90;;;;;;4339547;32;20093;-63
2021/11/10 04:57:18;;;;;;;5.82;2.03;;;-0.30;99.90;;;;;;4351186;32;20167;-63
2021/11/10 04:59:44;;;;;;;1.65;0.77;;;-0.30;99.90;;;;;;4363586;32;20081;-62
2021/11/10 05:04:38;;;;;;;1.42;1.08;;;-0.20;99.90;;;;;;4351484;32;20078;-63
2021/11/10 05:07:07;;;;;;;1.62;1.20;;;-0.30;99.90;;;;;;4339888;32;20077;-62
2021/11/10 05:09:33;;;;;;;3.87;1.40;;;-0.40;99.90;;;;;;4339612;32;20065;-61
2021/11/10 05:12:00;;;;;;;1.10;0.90;;;-0.30;99.90;;;;;;4363542;32;20077;-62
2021/11/10 05:14:26;;;;;;;2.12;1.30;;;-0.60;99.90;;;;;;4339167;32;20073;-61
2021/11/10 05:16:53;;;;;;;2.60;0.93;;;-0.40;99.90;;;;;;4339357;32;20078;-61
2021/11/10 05:19:19;;;;;;;2.28;1.17;;;-0.40;99.90;;;;;;4338773;32;20082;-62
2021/11/10 05:21:46;;;;;;;1.33;0.98;;;-0.40;99.90;;;;;;4338789;32;20089;-61
2021/11/10 05:24:13;;;;;;;1.80;0.77;;;-0.60;99.90;;;;;;4338783;32;20078;-61
2021/11/10 05:29:19;;;;;;;2.90;1.27;;;-0.60;99.90;;;;;;3831766;37;20070;-62
2021/11/10 05:31:46;;;;;;;2.70;1.50;;;-0.60;99.90;;;;;;4378267;32;20245;-62
2021/11/10 05:34:13;;;;;;;1.80;1.17;;;-0.50;99.90;;;;;;4365725;32;20220;-62
2021/11/10 05:36:39;;;;;;;2.45;1.25;;;-0.50;99.90;;;;;;4365474;32;20503;-61
2021/11/10 05:39:07;;;;;;;0.32;0.32;;;-0.70;99.90;;;;;;4390487;32;20085;-61
2021/11/10 05:41:33;;;;;;;2.58;1.50;;;-0.80;99.90;;;;;;4364401;32;20523;-63
2021/11/10 05:44:00;;;;;;;3.15;1.30;;;-0.70;99.90;;;;;;4350965;32;20077;-61
2021/11/10 05:46:26;;;;;;;1.37;1.10;;;-0.80;99.90;;;;;;4375167;32;20165;-62
2021/11/10 05:48:52;;;;;;;1.58;1.40;;;-0.80;99.90;;;;;;4362876;32;20097;-61
2021/11/10 05:51:19;;;;;;;4.57;1.00;;;-0.80;99.90;;;;;;4362896;32;20082;-62
2021/11/10 05:53:46;;;;;;;1.23;0.73;;;-0.70;99.90;;;;;;4362353;32;20077;-62
2021/11/10 05:56:19;;;;;;;2.33;1.27;;;-0.60;99.90;;;;;;4362583;32;20159;-63
2021/11/10 05:58:45;;;;;;;2.35;1.15;;;-0.60;99.90;;;;;;4352265;32;20085;-61
2021/11/10 06:01:11;;;;;;;1.58;0.90;;;-0.60;99.90;;;;;;4374962;32;20092;-63
2021/11/10 06:03:37;;;;;;;4.93;1.65;;;-0.80;99.90;;;;;;4375339;32;20512;-62
2021/11/10 06:06:04;;;;;;;3.12;1.62;;;-0.70;99.90;;;;;;4362773;32;20078;-62
2021/11/10 06:08:31;;;;;;;2.42;1.40;;;-0.70;99.90;;;;;;4362504;32;20079;-61
2021/11/10 06:10:57;;;;;;;2.37;1.12;;;-0.50;99.90;;;;;;4362848;32;20166;-60
2021/11/10 06:13:23;;;;;;;2.28;1.10;;;-0.60;99.90;;;;;;4362862;32;20169;-61
2021/11/10 06:15:51;;;;;;;1.45;1.00;;;-0.50;99.90;;;;;;4375287;32;20085;-61
2021/11/10 06:18:18;;;;;;;2.67;1.00;;;-0.60;99.90;;;;;;4379203;32;20078;-62
2021/11/10 06:20:44;;;;;;;4.28;1.30;;;-0.60;99.90;;;;;;4370910;32;20177;-61
2021/11/10 06:23:11;;;;;;;2.33;1.50;;;-0.70;99.90;;;;;;4363205;32;20157;-61
2021/11/10 06:25:37;;;;;;;5.95;1.77;;;-0.70;99.90;;;;;;4362368;32;20078;-61
2021/11/10 06:28:03;;;;;;;3.50;1.62;;;-0.60;99.90;;;;;;4361852;32;20076;-61
2021/11/10 06:30:30;;;;;;;3.00;1.50;;;-0.80;99.90;;;;;;4374808;32;20527;-62
2021/11/10 06:32:57;;;;;;;3.35;1.37;;;-0.70;99.90;;;;;;4349773;32;20522;-61
2021/11/10 06:35:23;;;;;;;5.12;2.00;;;-0.70;99.90;;;;;;4362130;32;20460;-62
2021/11/10 06:37:49;;;;;;;4.28;1.65;;;-0.90;99.90;;;;;;4375127;32;20129;-62
2021/11/10 06:40:15;;;;;;;2.45;1.35;;;-0.90;99.90;;;;;;4367384;32;20082;-61
2021/11/10 06:42:41;;;;;;;1.75;1.40;;;-0.90;99.90;;;;;;4364805;32;20074;-61
2021/11/10 06:45:08;;;;;;;2.37;1.52;;;-0.90;99.90;;;;;;4352189;32;20468;-61
2021/11/10 06:47:35;;;;;;;3.08;1.60;;;-0.80;99.90;;;;;;4352129;32;20089;-62
2021/11/10 06:50:03;;;;;;;1.67;1.00;;;-0.60;99.90;;;;;;4351784;32;20081;-62
2021/11/10 06:52:29;;;;;;;5.25;2.28;;;-0.90;99.90;;;;;;4352255;32;20151;-62
2021/11/10 06:54:55;;;;;;;3.05;1.25;;;-1.10;99.90;;;;;;4352156;32;20066;-61
2021/11/10 06:57:22;;;;;;;4.00;1.30;;;-1.00;99.90;;;;;;4351960;32;20103;-61
2021/11/10 06:59:48;;;;;;;1.58;0.82;;;-1.00;99.90;;;;;;4352175;32;20138;-60
2021/11/10 07:02:14;;;;;;;2.83;1.37;;;-1.10;99.90;;;;;;4363950;32;20069;-62
2021/11/10 07:04:40;;;;;;;2.12;0.82;;;-0.90;99.90;;;;;;4364352;32;20165;-61
2021/11/10 07:07:07;;;;;;;1.58;0.95;;;-1.00;99.90;;;;;;4363969;32;20521;-61
2021/11/10 07:09:33;;;;;;;5.43;1.52;;;-1.00;99.90;;;;;;4352301;32;20089;-61
2021/11/10 07:11:59;;;;;;;2.90;1.12;;;-0.90;99.90;;;;;;4352020;32;20080;-61
2021/11/10 07:14:26;;;;;;;2.60;1.33;;;-1.50;99.90;;;;;;4363867;32;20077;-61
2021/11/10 07:16:53;;;;;;;1.87;1.20;;;-1.50;99.90;;;;;;4364388;32;20094;-61
2021/11/10 07:19:20;;;;;;;1.77;1.05;;;-1.60;99.90;;;;;;4339774;32;20144;-62
2021/11/10 07:21:46;;;;;;;7.75;1.00;;;-1.50;99.90;;;;;;4364618;32;20066;-61
2021/11/10 07:24:12;;;;;;;1.33;1.10;;;-1.50;99.90;;;;;;4327306;32;20160;-61
2021/11/10 07:26:38;;;;;;;5.20;1.40;;;-1.40;99.90;;;;;;4351613;32;20098;-61
2021/11/10 07:29:05;;;;;;;4.35;1.52;;;-1.50;99.90;;;;;;4348803;32;20090;-62
2021/11/10 07:31:33;;;;;;;3.20;1.30;;;-1.30;99.90;;;;;;4312416;32;20146;-62
2021/11/10 07:33:59;;;;;;;3.03;1.35;;;-1.30;99.90;;;;;;4336323;32;20109;-61
2021/11/10 07:36:27;;;;;;;3.95;1.37;;;-1.30;99.90;;;;;;4312678;32;20090;-62
2021/11/10 07:38:55;;;;;;;3.40;1.45;;;-1.40;99.90;;;;;;4312698;32;20101;-62
2021/11/10 07:41:25;;;;;;;1.95;1.08;;;-1.30;99.90;;;;;;4324054;32;20097;-62
2021/11/10 07:43:53;;;;;;;1.20;0.98;;;-1.30;99.90;;;;;;4336723;32;20078;-63
2021/11/10 07:46:21;;;;;;;1.92;1.20;;;-1.20;99.90;;;;;;4324841;32;20152;-62
2021/11/10 07:48:48;;;;;;;3.20;1.10;;;-1.40;99.90;;;;;;4312265;32;20090;-62
2021/11/10 07:51:18;;;;;;;2.58;1.10;;;-1.20;99.90;;;;;;4311994;32;20152;-62
2021/11/10 07:53:45;;;;;;;2.20;0.90;;;-1.20;99.90;;;;;;4348615;32;20175;-62
2021/11/10 07:56:11;;;;;;;1.33;0.70;;;-1.10;99.90;;;;;;4312329;32;20093;-62
2021/11/10 07:58:38;;;;;;;1.20;0.90;;;-1.30;99.90;;;;;;4324616;32;20159;-63
2021/11/10 08:01:08;;;;;;;1.15;1.00;;;-1.30;99.90;;;;;;4336268;32;20496;-62
2021/11/10 08:03:35;;;;;;;0.90;0.77;;;-1.30;99.90;;;;;;4325184;32;20182;-62
2021/11/10 08:06:01;;;;;;;2.17;0.85;;;-1.10;99.90;;;;;;4323841;32;20446;-62
2021/11/10 08:08:28;;;;;;;3.75;1.12;;;-1.30;99.90;;;;;;4324433;32;20085;-62
2021/11/10 08:10:56;;;;;;;1.27;0.70;;;-1.30;99.90;;;;;;4336287;32;20070;-62
2021/11/10 08:13:23;;;;;;;1.40;0.80;;;-1.30;99.90;;;;;;4323879;32;20084;-62
2021/11/10 08:15:50;;;;;;;7.12;1.70;;;-1.30;99.90;;;;;;4324369;32;20185;-62
2021/11/10 08:18:17;;;;;;;7.40;1.45;;;-1.20;99.90;;;;;;4336346;32;20078;-63
2021/11/10 08:20:46;;;;;;;2.72;1.17;;;-1.30;99.90;;;;;;4335987;32;20078;-61
2021/11/10 08:23:18;;;;;;;2.15;0.90;;;-1.30;99.90;;;;;;4311986;32;20078;-62
2021/11/10 08:25:45;;;;;;;1.73;1.05;;;-1.10;99.90;;;;;;4324300;32;20175;-61
2021/11/10 08:28:11;;;;;;;2.10;1.10;;;-1.20;99.90;;;;;;4350116;32;20178;-63
2021/11/10 08:30:37;;;;;;;1.52;1.00;;;-1.20;99.90;;;;;;4350614;32;20095;-62
2021/11/10 08:33:04;;;;;;;1.58;1.10;;;-1.30;99.90;;;;;;4376832;32;20076;-63
2021/11/10 08:35:30;;;;;;;2.75;0.80;;;-1.30;99.90;;;;;;4363142;32;20078;-66
2021/11/10 08:37:57;;;;;;;2.50;0.57;;;-1.20;99.90;;;;;;4351276;32;20089;-62
2021/11/10 08:40:24;;;;;;;3.22;1.25;;;-1.20;99.90;;;;;;4363977;32;20074;-63
2021/11/10 08:42:52;;;;;;;2.50;1.17;;;-1.20;99.90;;;;;;4326909;32;20105;-62
2021/11/10 08:45:22;;;;;;;2.12;1.10;;;-1.10;99.90;;;;;;4351342;32;20160;-62
2021/11/10 08:47:53;;;;;;;1.98;1.20;;;-1.10;99.90;;;;;;4343892;32;20086;-63
2021/11/10 08:50:20;;;;;;;2.90;1.70;;;-1.30;99.90;;;;;;4353104;32;20078;-63
2021/11/10 08:52:47;;;;;;;2.37;1.83;;;-1.30;99.90;;;;;;4351028;32;20179;-63
2021/11/10 08:55:15;;;;;;;2.42;1.60;;;-1.10;99.90;;;;;;4362601;32;20066;-63
2021/11/10 08:57:43;;;;;;;4.18;1.30;;;-1.10;99.90;;;;;;4350787;32;20077;-63
2021/11/10 09:00:17;;;;;;;3.75;1.17;;;-1.20;99.90;;;;;;4338126;32;20451;-62
2021/11/10 09:02:44;;;;;;;1.58;0.85;;;-1.30;99.90;;;;;;4350241;32;20159;-62
2021/11/10 09:05:11;;;;;;;2.17;0.85;;;-1.30;99.90;;;;;;4362367;32;20086;-61
2021/11/10 09:07:38;;;;;;;1.85;0.82;;;-1.20;99.90;;;;;;4350358;32;20090;-62
2021/11/10 09:10:06;;;;;;;1.45;0.93;;;-1.30;99.90;;;;;;4350675;32;20081;-61
2021/11/10 09:12:32;;;;;;;2.35;1.40;;;-1.30;99.90;;;;;;4351003;32;20181;-61
2021/11/10 09:15:00;;;;;;;5.53;1.60;;;-1.20;99.90;;;;;;4368957;32;20078;-62
2021/11/10 09:17:26;;;;;;;3.22;1.10;;;-1.30;99.90;;;;;;4356057;32;20160;-62
2021/11/10 09:19:53;;;;;;;3.60;1.50;;;-1.20;99.90;;;;;;4357255;32;20085;-62
2021/11/10 09:22:20;;;;;;;3.20;1.90;;;-1.20;99.90;;;;;;4340715;32;20231;-63
2021/11/10 09:24:47;;;;;;;1.60;1.00;;;-1.10;99.90;;;;;;4350488;32;20077;-61
2021/11/10 09:27:14;;;;;;;7.55;2.78;;;-1.30;99.90;;;;;;4337401;32;20081;-63
2021/11/10 09:29:41;;;;;;;4.87;2.40;;;-1.20;99.90;;;;;;4350054;32;20131;-62
2021/11/10 09:32:07;;;;;;;2.95;1.37;;;-1.30;99.90;;;;;;4362622;32;20082;-63
2021/11/10 09:34:34;;;;;;;2.08;1.15;;;-1.40;99.90;;;;;;4349826;32;20217;-62
2021/11/10 09:37:00;;;;;;;1.60;1.15;;;-1.10;99.90;;;;;;4350072;32;20069;-62
2021/11/10 09:39:27;;;;;;;2.25;1.35;;;-1.20;99.90;;;;;;4350135;32;20168;-63
2021/11/10 09:41:53;;;;;;;1.85;1.00;;;-1.20;99.90;;;;;;4338284;32;20086;-62
2021/11/10 09:44:21;;;;;;;3.15;1.45;;;-1.20;99.90;;;;;;4350037;32;20493;-62
2021/11/10 09:46:48;;;;;;;4.43;1.50;;;-1.20;99.90;;;;;;4350129;32;20508;-62
2021/11/10 09:49:14;;;;;;;1.52;0.77;;;-1.40;99.90;;;;;;4362112;32;20504;-62
2021/11/10 09:51:42;;;;;;;1.25;1.00;;;-1.30;99.90;;;;;;4362560;32;20086;-61
2021/11/10 09:54:09;;;;;;;2.62;1.48;;;-1.30;99.90;;;;;;4350317;32;20078;-62
2021/11/10 09:56:36;;;;;;;1.67;0.93;;;-1.30;99.90;;;;;;4337866;32;20077;-61
2021/11/10 09:59:03;;;;;;;1.83;1.00;;;-1.40;99.90;;;;;;4337897;32;20478;-61
2021/11/10 10:01:32;;;;;;;0.93;0.57;;;-1.40;99.90;;;;;;4350241;32;20067;-62
2021/11/10 10:03:58;;;;;;;2.40;0.75;;;-1.40;99.90;;;;;;4350043;32;20062;-63
2021/11/10 10:06:26;;;;;;;3.42;1.00;;;-1.40;99.90;;;;;;4350055;32;20156;-63
2021/11/10 10:08:52;;;;;;;2.08;1.10;;;-1.30;99.90;;;;;;4349871;32;20094;-61
2021/11/10 10:11:19;;;;;;;2.12;0.70;;;-1.40;99.90;;;;;;4337381;32;20154;-62
2021/11/10 10:13:46;;;;;;;3.85;1.27;;;-1.50;99.90;;;;;;4337283;32;20081;-62
2021/11/10 10:16:22;;;;;;;2.37;0.75;;;-1.40;99.90;;;;;;4352190;32;20535;-64
2021/11/10 10:18:48;;;;;;;2.37;1.30;;;-1.30;99.90;;;;;;4352598;32;20085;-61
2021/11/10 10:21:19;;;;;;;3.72;1.83;;;-1.30;99.90;;;;;;4364915;32;20082;-62
2021/11/10 10:23:48;;;;;;;4.43;1.40;;;-1.30;99.90;;;;;;4353007;32;20080;-62
2021/11/10 10:26:21;;;;;;;3.28;1.60;;;-1.30;99.90;;;;;;4352495;32;20083;-62
2021/11/10 10:28:53;;;;;;;2.12;1.37;;;-1.40;99.90;;;;;;4324711;32;20062;-63
2021/11/10 10:31:27;;;;;;;1.73;1.00;;;-1.40;99.90;;;;;;4326308;32;20090;-63
2021/11/10 10:33:57;;;;;;;3.65;1.40;;;-1.30;99.90;;;;;;4313278;32;20087;-62
2021/11/10 10:36:29;;;;;;;2.45;1.00;;;-1.30;99.90;;;;;;4338113;32;20070;-62
2021/11/10 10:38:58;;;;;;;0.65;0.60;;;-1.20;99.90;;;;;;4326215;32;20093;-62
2021/11/10 10:41:31;;;;;;;2.50;1.62;;;-1.30;99.90;;;;;;4337594;32;20143;-62
2021/11/10 10:44:16;;;;;;;3.30;1.37;;;-1.20;99.90;;;;;;4325662;32;20086;-62
2021/11/10 10:46:58;;;;;;;2.50;1.30;;;-1.20;99.90;;;;;;4326739;32;20078;-63
2021/11/10 10:49:33;;;;;;;2.17;1.05;;;-1.40;99.90;;;;;;4326625;32;20159;-63
2021/11/10 10:52:13;;;;;;;0.75;0.65;;;-1.30;99.90;;;;;;4326674;32;20074;-61
2021/11/10 10:54:46;;;;;;;0.85;0.85;;;-1.30;99.90;;;;;;4325298;32;20097;-63
2021/11/10 10:57:20;;;;;;;3.67;1.33;;;-1.30;99.90;;;;;;4321736;32;20101;-63
2021/11/10 10:59:46;;;;;;;2.55;1.00;;;-1.30;99.90;;;;;;4346259;32;20133;-59
2021/11/10 11:02:13;;;;;;;3.83;1.25;;;-1.30;99.90;;;;;;4336161;32;20077;-58
2021/11/10 11:04:44;;;;;;;2.45;1.35;;;-1.40;99.90;;;;;;4336888;32;20074;-60
2021/11/10 11:07:11;;;;;;;4.87;1.45;;;-1.20;99.90;;;;;;4312597;32;20110;-59
2021/11/10 11:09:42;;;;;;;3.95;1.35;;;-1.30;99.90;;;;;;4325122;32;20167;-60
2021/11/10 11:12:34;;;;;;;1.92;1.50;;;-1.30;99.90;;;;;;4336853;32;20075;-61
2021/11/10 11:15:25;;;;;;;2.25;1.20;;;-1.30;99.90;;;;;;4330367;32;20452;-63
2021/11/10 11:17:56;;;;;;;3.45;1.40;;;-1.50;99.90;;;;;;4333063;32;20163;-63
2021/11/10 11:20:33;;;;;;;2.72;1.15;;;-1.60;99.90;;;;;;4326648;32;20074;-60
2021/11/10 11:23:00;;;;;;;2.25;1.15;;;-1.40;99.90;;;;;;4312843;32;20075;-63
2021/11/10 11:25:27;;;;;;;2.55;1.33;;;-1.40;99.90;;;;;;4324738;32;20085;-62
2021/11/10 11:28:06;;;;;;;2.90;1.33;;;-1.40;99.90;;;;;;4337894;32;20085;-61
2021/11/10 11:30:36;;;;;;;5.68;1.77;;;-1.50;99.90;;;;;;4351998;32;20689;-62
2021/11/10 11:33:05;;;;;;;0.60;0.60;;;-1.40;99.90;;;;;;4348183;32;20484;-59
2021/11/10 11:35:40;;;;;;;2.87;1.77;;;-1.50;99.90;;;;;;4353859;32;20066;-67
2021/11/10 11:38:17;;;;;;;5.85;1.60;;;-1.50;99.90;;;;;;4348803;32;20120;-66
2021/11/10 11:40:46;;;;;;;2.53;1.20;;;-1.50;99.90;;;;;;4376908;32;20549;-64
2021/11/10 11:43:16;;;;;;;3.40;0.93;;;-1.60;99.90;;;;;;4329756;32;20109;-65
2021/11/10 11:45:45;;;;;;;2.45;1.00;;;-1.60;99.90;;;;;;4340052;32;20551;-63
2021/11/10 11:48:12;;;;;;;6.50;1.42;;;-1.70;99.90;;;;;;4325793;32;20149;-62
2021/11/10 11:50:39;;;;;;;2.35;1.00;;;-1.60;99.90;;;;;;4346813;32;20086;-62
2021/11/10 11:53:06;;;;;;;1.85;0.85;;;-1.60;99.90;;;;;;4328762;32;20542;-64
2021/11/10 11:55:55;;;;;;;5.07;0.98;;;-1.60;99.90;;;;;;4322740;32;20097;-62
2021/11/10 11:58:29;;;;;;;2.78;1.60;;;-1.70;99.90;;;;;;4351071;32;20090;-65
2021/11/10 12:01:05;;;;;;;3.05;1.65;;;-1.70;99.90;;;;;;4333575;32;20154;-64
2021/11/10 12:03:34;;;;;;;2.72;1.77;;;-1.70;99.90;;;;;;4347212;32;20094;-63
2021/11/10 12:06:04;;;;;;;3.47;2.20;;;-1.80;99.90;;;;;;4352838;32;20194;-63
2021/11/10 12:08:45;;;;;;;3.55;1.52;;;-1.80;99.90;;;;;;4351818;32;20075;-62
2021/11/10 12:11:37;;;;;;;2.42;1.12;;;-1.80;99.90;;;;;;4355960;32;20173;-63
2021/11/10 12:14:15;;;;;;;2.33;1.00;;;-1.70;99.90;;;;;;4344396;32;20058;-62
2021/11/10 12:17:02;;;;;;;1.73;0.80;;;-1.70;99.90;;;;;;4330686;32;20081;-63
2021/11/10 12:19:28;;;;;;;;;;;-1.70;99.90;;;;;;4354501;32;20102;-62
2021/11/10 12:22:15;;;;;;;2.78;1.48;;;-1.70;99.90;;;;;;4341786;32;20037;-62
2021/11/10 12:25:02;;;;;;;4.53;1.17;;;-1.70;99.90;;;;;;4321628;32;20162;-63
2021/11/10 12:27:32;;;;;;;1.48;0.95;;;-1.90;99.90;;;;;;4346086;32;20090;-62
2021/11/10 12:30:13;;;;;;;2.72;1.10;;;-1.80;99.90;;;;;;4356775;32;20132;-61
2021/11/10 12:32:40;;;;;;;2.87;1.20;;;-1.80;99.90;;;;;;4345620;32;20086;-62
2021/11/10 12:35:09;;;;;;;4.07;1.30;;;-1.90;99.90;;;;;;4340131;32;20066;-62
2021/11/10 12:37:41;;;;;;;4.12;1.40;;;-1.80;99.90;;;;;;4346102;32;20130;-64
2021/11/10 12:40:15;;;;;;;1.70;1.23;;;-1.80;99.90;;;;;;4338739;32;20082;-63
2021/11/10 12:43:03;;;;;;;2.97;1.25;;;-1.80;99.90;;;;;;4337683;32;20074;-63
2021/11/10 12:46:05;;;;;;;3.53;1.40;;;-1.80;99.90;;;;;;4342951;32;20513;-61
2021/11/10 12:48:37;;;;;;;2.42;1.23;;;-1.90;99.90;;;;;;4339528;32;20065;-61
2021/11/10 12:51:31;;;;;;;3.12;1.20;;;-1.90;99.90;;;;;;4323228;32;20523;-62
2021/11/10 12:54:04;;;;;;;2.00;1.20;;;-1.90;99.90;;;;;;4334261;32;20167;-62
2021/11/10 12:56:49;;;;;;;1.20;1.10;;;-1.90;99.90;;;;;;4337412;32;20496;-63
2021/11/10 12:59:29;;;;;;;1.92;1.35;;;-1.90;99.90;;;;;;4339531;32;20190;-64
2021/11/10 13:01:57;;;;;;;4.60;2.03;;;;;;;;;;4343573;32;20076;-71
2021/11/10 13:04:27;;;;;;;5.12;2.60;;;18.10;26.30;;;;;;4341033;32;20075;-62